createdAt,value
2023-08-15T00:02:52.318Z,84.18
2023-08-15T00:05:55.129Z,84.07
2023-08-15T00:08:59.569Z,83.92
2023-08-15T00:12:02.393Z,84.48
2023-08-15T00:15:05.350Z,84.98
2023-08-15T00:18:08.358Z,85.32
2023-08-15T00:21:10.981Z,85.54
2023-08-15T00:24:13.838Z,85.70
2023-08-15T00:27:16.464Z,84.95
2023-08-15T00:30:19.103Z,85.20
2023-08-15T00:33:21.825Z,85.21
2023-08-15T00:36:24.362Z,85.24
2023-08-15T00:39:28.045Z,85.55
2023-08-15T00:42:32.034Z,85.50
2023-08-15T00:45:38.829Z,86.06
2023-08-15T00:48:41.561Z,86.21
2023-08-15T00:51:44.141Z,85.71
2023-08-15T00:54:51.595Z,86.47
2023-08-15T00:57:54.369Z,86.34
2023-08-15T01:00:57.556Z,86.70
2023-08-15T01:04:00.488Z,86.76
2023-08-15T01:07:03.081Z,87.20
2023-08-15T01:10:06.526Z,88.04
2023-08-15T01:13:36.555Z,88.03
2023-08-15T01:16:45.339Z,87.54
2023-08-15T01:19:50.887Z,87.70
2023-08-15T01:22:54.640Z,88.21
2023-08-15T01:25:58.114Z,88.35
2023-08-15T01:29:00.623Z,87.65
2023-08-15T01:32:37.038Z,87.00
2023-08-15T01:35:56.860Z,86.67
2023-08-15T01:39:05.222Z,86.71
2023-08-15T01:42:09.206Z,87.15
2023-08-15T01:45:13.041Z,87.01
2023-08-15T01:48:16.286Z,87.46
2023-08-15T01:51:18.810Z,88.04
2023-08-15T01:54:21.639Z,87.96
2023-08-15T01:57:24.167Z,88.23
2023-08-15T02:00:26.764Z,87.93
2023-08-15T02:03:29.597Z,88.26
2023-08-15T02:06:32.158Z,88.37
2023-08-15T02:09:34.724Z,88.73
2023-08-15T02:12:37.276Z,89.00
2023-08-15T02:15:39.740Z,89.21
2023-08-15T02:18:42.549Z,88.78
2023-08-15T02:21:46.139Z,89.15
2023-08-15T02:24:48.718Z,89.24
2023-08-15T02:27:51.318Z,89.20
2023-08-15T02:30:54.735Z,89.32
2023-08-15T02:33:57.566Z,89.68
2023-08-15T02:37:00.085Z,90.09
2023-08-15T02:40:02.686Z,90.39
2023-08-15T02:43:05.247Z,90.94
2023-08-15T02:46:07.770Z,91.17
2023-08-15T02:49:10.271Z,91.11
2023-08-15T02:52:12.840Z,91.42
2023-08-15T02:55:15.363Z,91.44
2023-08-15T02:58:18.550Z,91.38
2023-08-15T03:01:21.197Z,91.18
2023-08-15T03:04:23.941Z,91.55
2023-08-15T03:07:26.525Z,91.70
2023-08-15T03:10:29.026Z,91.44
2023-08-15T03:13:31.665Z,92.15
2023-08-15T03:16:35.430Z,92.02
2023-08-15T03:19:38.932Z,92.68
2023-08-15T03:22:44.392Z,92.98
2023-08-15T03:26:03.888Z,92.81
2023-08-15T03:29:09.890Z,93.32
2023-08-15T03:32:12.788Z,93.76
2023-08-15T03:35:15.492Z,93.71
2023-08-15T03:38:19.741Z,93.23
2023-08-15T03:41:23.998Z,93.26
2023-08-15T03:44:26.476Z,93.60
2023-08-15T03:47:29.017Z,93.51
2023-08-15T03:50:35.549Z,93.65
2023-08-15T03:53:38.091Z,93.18
2023-08-15T03:56:41.017Z,92.85
2023-08-15T03:59:43.525Z,92.18
2023-08-15T04:02:46.666Z,91.72
2023-08-15T04:05:49.750Z,91.52
2023-08-15T04:08:52.337Z,90.70
2023-08-15T04:11:54.842Z,90.74
2023-08-15T04:14:57.446Z,90.47
2023-08-15T04:18:00.090Z,90.24
2023-08-15T04:21:02.725Z,90.21
2023-08-15T04:24:05.491Z,89.97
2023-08-15T04:27:08.594Z,89.37
2023-08-15T04:30:11.190Z,89.48
2023-08-15T04:33:14.006Z,89.42
2023-08-15T04:36:16.594Z,89.20
2023-08-15T04:39:19.567Z,88.53
2023-08-15T04:42:22.363Z,88.64
2023-08-15T04:45:24.998Z,88.83
2023-08-15T04:48:27.828Z,88.11
2023-08-15T04:51:30.659Z,87.75
2023-08-15T04:54:33.179Z,87.59
2023-08-15T04:57:35.733Z,86.90
2023-08-15T05:00:38.566Z,86.65
2023-08-15T05:03:41.875Z,86.28
2023-08-15T05:06:44.341Z,85.74
2023-08-15T05:09:47.787Z,85.04
2023-08-15T05:12:50.727Z,84.42
2023-08-15T05:15:55.671Z,84.01
2023-08-15T05:18:58.440Z,83.03
2023-08-15T05:22:01.311Z,82.13
2023-08-15T05:25:04.257Z,82.05
2023-08-15T05:28:09.721Z,82.40
2023-08-15T05:31:12.351Z,81.23
2023-08-15T05:34:14.979Z,81.49
2023-08-15T05:37:17.658Z,80.55
2023-08-15T05:40:21.739Z,80.26
2023-08-15T05:43:24.444Z,79.08
2023-08-15T05:46:28.252Z,78.42
2023-08-15T05:49:30.861Z,78.47
2023-08-15T05:52:33.905Z,77.90
2023-08-15T05:55:36.375Z,77.09
2023-08-15T05:58:38.897Z,77.14
2023-08-15T06:01:41.526Z,75.73
2023-08-15T06:04:44.038Z,75.82
2023-08-15T06:07:46.623Z,75.24
2023-08-15T06:10:49.302Z,76.00
2023-08-15T06:13:51.835Z,75.16
2023-08-15T06:16:54.494Z,74.60
2023-08-15T06:19:57.025Z,74.73
2023-08-15T06:22:59.705Z,73.64
2023-08-15T06:26:02.270Z,74.13
2023-08-15T06:29:06.206Z,72.62
2023-08-15T06:32:10.482Z,71.57
2023-08-15T06:35:13.237Z,70.98
2023-08-15T06:38:15.734Z,71.02
2023-08-15T06:41:18.603Z,69.96
2023-08-15T06:44:22.311Z,69.94
2023-08-15T06:47:24.839Z,70.40
2023-08-15T06:50:27.524Z,70.16
2023-08-15T06:53:31.469Z,69.84
2023-08-15T06:56:33.989Z,70.27
2023-08-15T06:59:36.954Z,69.92
2023-08-15T07:02:40.728Z,69.31
2023-08-15T07:05:44.479Z,68.35
2023-08-15T07:08:47.524Z,67.58
2023-08-15T07:11:50.113Z,66.74
2023-08-15T07:14:52.623Z,67.10
2023-08-15T07:17:55.362Z,67.30
2023-08-15T07:20:58.035Z,66.28
2023-08-15T07:24:01.675Z,66.05
2023-08-15T07:27:04.190Z,65.32
2023-08-15T07:30:07.478Z,64.91
2023-08-15T07:33:10.261Z,65.69
2023-08-15T07:36:14.350Z,66.20
2023-08-15T07:39:17.206Z,66.09
2023-08-15T07:42:20.096Z,63.28
2023-08-15T07:45:23.531Z,62.00
2023-08-15T07:48:25.985Z,60.23
2023-08-15T07:51:29.094Z,57.04
2023-08-15T07:54:31.726Z,56.55
2023-08-15T07:57:34.281Z,55.99
2023-08-15T08:00:38.036Z,54.91
2023-08-15T08:03:43.690Z,53.79
2023-08-15T08:06:46.785Z,55.08
2023-08-15T08:09:49.301Z,52.97
2023-08-15T08:12:51.866Z,52.54
2023-08-15T08:15:54.955Z,52.29
2023-08-15T08:18:57.508Z,52.52
2023-08-15T08:22:00.052Z,52.13
2023-08-15T08:25:28.653Z,52.76
2023-08-15T08:28:32.212Z,52.09
2023-08-15T08:31:34.687Z,52.49
2023-08-15T08:34:37.302Z,50.47
2023-08-15T08:37:40.055Z,50.18
2023-08-15T08:40:43.325Z,50.23
2023-08-15T08:43:45.922Z,49.01
2023-08-15T08:46:48.718Z,50.34
2023-08-15T08:49:53.782Z,50.08
2023-08-15T08:52:56.531Z,49.42
2023-08-15T08:55:59.292Z,47.56
2023-08-15T08:59:06.454Z,46.33
2023-08-15T09:02:15.423Z,49.10
2023-08-15T09:05:18.158Z,45.74
2023-08-15T09:08:20.648Z,46.32
2023-08-15T09:11:23.096Z,45.61
2023-08-15T09:14:25.558Z,45.54
2023-08-15T09:17:28.335Z,46.05
2023-08-15T09:20:30.939Z,45.19
2023-08-15T09:23:33.525Z,45.57
2023-08-15T09:26:37.157Z,45.77
2023-08-15T09:29:39.652Z,45.35
2023-08-15T09:32:44.021Z,44.50
2023-08-15T09:35:58.016Z,46.92
2023-08-15T09:39:01.439Z,42.92
2023-08-15T09:42:05.211Z,43.39
2023-08-15T09:45:09.169Z,45.24
2023-08-15T09:48:12.665Z,44.63
2023-08-15T09:51:17.692Z,45.06
2023-08-15T09:54:20.206Z,44.04
2023-08-15T09:57:23.040Z,43.21
2023-08-15T10:00:25.854Z,43.08
2023-08-15T10:03:40.094Z,42.99
2023-08-15T10:06:44.686Z,42.77
2023-08-15T10:09:48.211Z,42.51
2023-08-15T10:12:52.367Z,42.53
2023-08-15T10:15:56.000Z,43.04
2023-08-15T14:48:24.525Z,23.87
2023-08-15T14:51:27.015Z,22.83
2023-08-15T14:54:29.439Z,23.40
2023-08-15T14:57:31.955Z,22.16
2023-08-15T15:00:34.536Z,23.97
2023-08-15T15:03:37.212Z,23.20
2023-08-15T15:06:39.817Z,22.97
2023-08-15T15:09:42.378Z,22.92
2023-08-15T15:12:46.081Z,24.77
2023-08-15T15:15:54.320Z,23.61
2023-08-15T15:18:57.373Z,23.91
2023-08-15T15:22:00.682Z,25.42
2023-08-15T15:25:03.412Z,25.62
2023-08-15T15:28:06.218Z,26.72
2023-08-15T15:31:08.768Z,26.02
2023-08-15T15:34:11.443Z,24.71
2023-08-15T15:37:14.257Z,25.69
2023-08-15T15:40:17.005Z,27.12
2023-08-15T15:43:21.577Z,26.52
2023-08-15T15:46:24.799Z,26.17
2023-08-15T15:49:27.451Z,27.43
2023-08-15T15:52:30.026Z,28.67
2023-08-15T15:55:32.632Z,29.35
2023-08-15T15:58:35.077Z,30.41
2023-08-15T16:01:37.729Z,31.68
2023-08-15T16:04:40.787Z,31.68
2023-08-15T16:07:43.349Z,32.14
2023-08-15T16:10:45.810Z,32.69
2023-08-15T16:13:48.302Z,33.87
2023-08-15T16:16:50.845Z,34.05
2023-08-15T16:19:53.299Z,34.51
2023-08-15T16:22:55.894Z,35.11
2023-08-15T16:25:58.417Z,36.18
2023-08-15T16:29:00.940Z,36.45
2023-08-15T16:32:04.186Z,37.43
2023-08-15T16:35:07.223Z,38.25
2023-08-15T16:38:10.450Z,39.26
2023-08-15T16:41:13.108Z,39.57
2023-08-15T16:44:15.790Z,40.36
2023-08-15T16:47:18.328Z,40.47
2023-08-15T16:50:20.951Z,40.89
2023-08-15T16:53:23.477Z,41.14
2023-08-15T16:56:25.970Z,41.68
2023-08-15T16:59:28.444Z,41.98
2023-08-15T17:02:30.981Z,43.27
2023-08-15T17:05:33.578Z,43.27
2023-08-15T17:08:36.176Z,43.16
2023-08-15T17:11:40.382Z,43.33
2023-08-15T17:14:43.012Z,44.00
2023-08-15T17:17:45.663Z,44.53
2023-08-15T17:20:48.257Z,44.93
2023-08-15T17:23:50.739Z,45.32
2023-08-15T17:26:53.302Z,45.43
2023-08-15T17:29:56.580Z,46.23
2023-08-15T17:32:59.094Z,46.67
2023-08-15T17:36:01.661Z,47.25
2023-08-15T17:39:04.597Z,47.34
2023-08-15T17:42:07.130Z,47.42
2023-08-15T17:45:10.284Z,46.70
2023-08-15T17:48:12.794Z,46.81
2023-08-15T17:51:15.309Z,47.67
2023-08-15T17:54:17.948Z,47.93
2023-08-15T17:57:20.448Z,49.38
2023-08-15T18:00:23.395Z,49.01
2023-08-15T18:03:26.076Z,49.08
2023-08-15T18:06:29.423Z,49.52
2023-08-15T18:09:32.099Z,50.39
2023-08-15T18:12:34.983Z,50.81
2023-08-15T18:15:38.030Z,51.05
2023-08-15T18:18:40.914Z,51.63
2023-08-15T18:21:43.401Z,51.92
2023-08-15T18:24:45.863Z,50.50
2023-08-15T18:27:48.392Z,50.58
2023-08-15T18:30:51.020Z,51.05
2023-08-15T18:33:53.602Z,51.21
2023-08-15T18:36:56.088Z,52.17
2023-08-15T18:39:58.686Z,52.98
2023-08-15T18:43:01.272Z,52.99
2023-08-15T18:46:04.763Z,52.85
2023-08-15T18:49:07.685Z,52.51
2023-08-15T18:52:10.133Z,51.65
2023-08-15T18:55:12.928Z,51.15
2023-08-15T18:58:15.715Z,50.94
2023-08-15T19:01:18.271Z,50.98
2023-08-15T19:04:20.829Z,51.98
2023-08-15T19:07:23.357Z,52.78
2023-08-15T19:10:26.272Z,53.22
2023-08-15T19:13:28.793Z,54.55
2023-08-15T19:16:31.287Z,55.66
2023-08-15T19:19:34.033Z,56.43
2023-08-15T19:22:36.962Z,57.20
2023-08-15T19:25:39.843Z,58.21
2023-08-15T19:28:42.453Z,58.04
2023-08-15T19:31:45.103Z,58.96
2023-08-15T19:34:49.239Z,59.63
2023-08-15T19:37:51.810Z,60.25
2023-08-15T19:40:54.273Z,60.87
2023-08-15T19:43:59.504Z,61.18
2023-08-15T19:47:02.616Z,62.04
2023-08-15T19:50:06.431Z,62.05
2023-08-15T19:53:09.110Z,61.43
2023-08-15T19:56:11.652Z,62.39
2023-08-15T19:59:14.320Z,61.43
2023-08-15T20:02:21.563Z,61.35
2023-08-15T20:05:24.304Z,61.32
2023-08-15T20:08:26.795Z,61.56
2023-08-15T20:11:29.325Z,62.02
2023-08-15T20:14:31.750Z,63.17
2023-08-15T20:17:34.505Z,63.99
2023-08-15T20:20:37.038Z,63.32
2023-08-15T20:23:39.492Z,63.87
2023-08-15T20:26:42.039Z,63.27
2023-08-15T20:29:45.210Z,63.06
2023-08-15T20:32:47.676Z,62.45
2023-08-15T20:35:50.486Z,62.98
2023-08-15T20:38:53.513Z,63.11
2023-08-15T20:41:55.940Z,63.09
2023-08-15T20:44:58.535Z,62.94
2023-08-15T20:48:01.255Z,62.99
2023-08-15T20:51:04.164Z,62.68
2023-08-15T20:54:06.723Z,63.37
2023-08-15T20:57:09.238Z,63.31
2023-08-15T21:00:12.276Z,64.28
2023-08-15T21:03:14.911Z,64.24
2023-08-15T21:06:17.550Z,64.62
2023-08-15T21:09:20.545Z,63.96
2023-08-15T21:12:23.175Z,63.90
2023-08-15T21:15:25.956Z,63.68
2023-08-15T21:18:28.454Z,64.61
2023-08-15T21:21:30.978Z,64.78
2023-08-15T21:24:33.519Z,64.36
2023-08-15T21:27:36.415Z,64.99
2023-08-15T21:30:39.016Z,66.20
2023-08-15T21:33:41.500Z,66.08
2023-08-15T21:36:44.020Z,65.86
2023-08-15T21:39:46.595Z,65.56
2023-08-15T21:42:49.105Z,66.18
2023-08-15T21:45:51.625Z,67.09
2023-08-15T21:48:54.077Z,67.65
2023-08-15T21:51:56.576Z,68.53
2023-08-15T21:54:59.223Z,68.83
2023-08-15T21:58:01.739Z,69.27
2023-08-15T22:01:04.356Z,69.11
2023-08-15T22:04:06.849Z,68.83
2023-08-15T22:07:09.321Z,69.19
2023-08-15T22:10:12.360Z,69.17
2023-08-15T22:13:15.218Z,69.83
2023-08-15T22:16:17.779Z,68.41
2023-08-15T22:19:20.467Z,69.88
2023-08-15T22:22:23.104Z,70.09
2023-08-15T22:25:25.762Z,70.64
2023-08-15T22:28:28.273Z,70.45
2023-08-15T22:31:30.883Z,69.01
2023-08-15T22:34:33.372Z,68.57
2023-08-15T22:37:35.849Z,68.70
2023-08-15T22:40:38.435Z,68.92
2023-08-15T22:43:40.923Z,68.64
2023-08-15T22:46:43.388Z,68.65
2023-08-15T22:49:45.922Z,68.32
2023-08-15T22:52:48.463Z,68.09
2023-08-15T22:55:50.972Z,67.91
2023-08-15T22:58:54.314Z,67.53
2023-08-15T23:01:56.883Z,67.02
2023-08-15T23:04:59.406Z,66.93
2023-08-15T23:08:01.912Z,66.94
2023-08-15T23:11:04.511Z,66.95
2023-08-15T23:14:07.130Z,66.75
2023-08-15T23:17:09.656Z,66.56
2023-08-15T23:20:13.106Z,66.94
2023-08-15T23:23:15.599Z,66.43
2023-08-15T23:26:18.125Z,66.69
2023-08-15T23:29:20.743Z,67.51
2023-08-15T23:32:23.191Z,68.13
2023-08-15T23:35:25.652Z,68.72
2023-08-15T23:38:28.177Z,68.76
2023-08-15T23:41:30.774Z,69.81
2023-08-15T23:44:33.288Z,70.03
2023-08-15T23:47:35.820Z,70.82
2023-08-15T23:50:38.313Z,71.35
2023-08-15T23:53:40.848Z,71.96
2023-08-15T23:56:43.381Z,72.40
2023-08-15T23:59:45.879Z,73.17
